createdAt,value
2022-10-11T00:02:08.307Z,8.30
2022-10-11T00:04:37.653Z,8.27
2022-10-11T00:07:05.354Z,8.33
2022-10-11T00:09:33.244Z,8.39
2022-10-11T00:12:01.432Z,8.39
2022-10-11T00:14:29.532Z,8.40
2022-10-11T00:16:57.541Z,8.40
2022-10-11T00:19:25.501Z,8.44
2022-10-11T00:21:54.582Z,8.35
2022-10-11T00:24:22.666Z,8.41
2022-10-11T00:26:50.652Z,8.49
2022-10-11T00:29:18.428Z,8.59
2022-10-11T00:31:46.136Z,8.60
2022-10-11T00:34:15.583Z,8.59
2022-10-11T00:36:43.401Z,8.66
2022-10-11T00:39:14.422Z,8.49
2022-10-11T00:41:42.984Z,8.39
2022-10-11T00:44:17.302Z,8.32
2022-10-11T00:46:54.987Z,8.28
2022-10-11T00:49:33.693Z,8.31
2022-10-11T00:52:04.551Z,8.40
2022-10-11T00:54:37.420Z,8.42
2022-10-11T00:57:10.508Z,8.38
2022-10-11T00:59:42.547Z,8.35
2022-10-11T01:02:11.304Z,8.30
2022-10-11T01:04:39.350Z,8.21
2022-10-11T01:07:07.190Z,8.20
2022-10-11T01:09:37.074Z,8.19
2022-10-11T01:12:08.069Z,8.14
2022-10-11T01:15:05.279Z,8.09
2022-10-11T01:17:41.032Z,8.10
2022-10-11T01:20:32.565Z,8.07
2022-10-11T01:23:19.084Z,8.10
2022-10-11T01:26:08.141Z,8.14
2022-10-11T01:28:50.189Z,8.16
2022-10-11T01:31:26.233Z,8.20
2022-10-11T01:33:58.017Z,8.25
2022-10-11T01:36:34.109Z,8.28
2022-10-11T01:39:06.158Z,8.30
2022-10-11T01:41:39.913Z,8.34
2022-10-11T01:44:10.241Z,8.47
2022-10-11T01:46:39.959Z,8.55
2022-10-11T01:49:08.513Z,8.62
2022-10-11T01:51:42.983Z,8.71
2022-10-11T01:55:07.509Z,8.78
2022-10-11T01:57:49.059Z,8.87
2022-10-11T02:00:20.521Z,8.94
2022-10-11T02:03:06.730Z,9.00
2022-10-11T02:05:40.173Z,9.09
2022-10-11T02:08:17.323Z,9.12
2022-10-11T02:10:50.703Z,9.18
2022-10-11T02:13:25.018Z,9.21
2022-10-11T02:15:54.892Z,9.24
2022-10-11T02:18:28.411Z,9.22
2022-10-11T02:21:00.673Z,9.21
2022-10-11T02:23:34.213Z,9.23
2022-10-11T02:26:06.434Z,9.22
2022-10-11T02:28:36.625Z,9.23
2022-10-11T02:31:07.925Z,9.22
2022-10-11T02:33:42.678Z,9.26
2022-10-11T02:36:18.438Z,9.31
2022-10-11T02:38:51.529Z,9.34
2022-10-11T02:41:24.596Z,9.39
2022-10-11T02:43:58.382Z,9.45
2022-10-11T02:46:30.370Z,9.48
2022-10-11T02:49:00.924Z,9.53
2022-10-11T02:51:31.509Z,9.55
2022-10-11T02:53:59.358Z,9.61
2022-10-11T02:56:27.801Z,9.64
2022-10-11T02:58:55.828Z,9.68
2022-10-11T03:01:23.761Z,9.70
2022-10-11T03:03:51.669Z,9.72
2022-10-11T03:06:21.888Z,9.73
2022-10-11T03:08:49.729Z,9.74
2022-10-11T03:11:17.424Z,9.72
2022-10-11T03:13:45.641Z,9.74
2022-10-11T03:16:14.021Z,9.75
2022-10-11T03:18:41.983Z,9.73
2022-10-11T03:21:10.477Z,9.72
2022-10-11T03:23:40.004Z,9.71
2022-10-11T03:26:08.566Z,9.72
2022-10-11T03:28:37.107Z,9.76
2022-10-11T03:31:05.000Z,9.78
2022-10-11T03:33:32.769Z,9.81
2022-10-11T03:36:01.386Z,9.80
2022-10-11T03:38:29.635Z,9.85
2022-10-11T03:40:58.800Z,9.86
2022-10-11T03:43:26.901Z,9.87
2022-10-11T03:45:54.705Z,9.86
2022-10-11T03:48:22.491Z,9.85
2022-10-11T03:50:50.510Z,9.78
2022-10-11T03:53:18.266Z,9.72
2022-10-11T03:55:46.033Z,9.65
2022-10-11T03:58:15.501Z,9.58
2022-10-11T04:00:43.244Z,9.56
2022-10-11T04:03:10.927Z,9.57
2022-10-11T04:05:39.136Z,9.57
2022-10-11T04:08:11.796Z,9.62
2022-10-11T04:10:40.950Z,9.66
2022-10-11T04:13:10.869Z,9.70
2022-10-11T04:15:41.251Z,9.75
2022-10-11T04:18:10.002Z,9.80
2022-10-11T04:20:37.786Z,9.83
2022-10-11T04:23:05.517Z,9.80
2022-10-11T04:25:33.710Z,9.83
2022-10-11T04:28:01.480Z,9.89
2022-10-11T04:30:29.334Z,9.87
2022-10-11T04:32:59.183Z,9.89
2022-10-11T04:35:27.004Z,9.83
2022-10-11T04:37:54.681Z,9.91
2022-10-11T04:40:22.840Z,9.91
2022-10-11T04:42:53.578Z,9.92
2022-10-11T04:45:21.621Z,9.86
2022-10-11T04:47:50.125Z,9.90
2022-10-11T04:50:19.419Z,9.90
2022-10-11T04:52:47.197Z,9.83
2022-10-11T04:55:15.326Z,9.78
2022-10-11T04:57:43.225Z,9.71
2022-10-11T05:00:12.417Z,9.74
2022-10-11T05:02:40.434Z,9.76
2022-10-11T05:05:08.985Z,9.77
2022-10-11T05:07:38.173Z,9.77
2022-10-11T05:10:07.279Z,9.81
2022-10-11T05:12:34.981Z,9.86
2022-10-11T05:15:03.005Z,9.90
2022-10-11T05:17:31.076Z,9.92
2022-10-11T05:19:59.025Z,9.90
2022-10-11T05:22:26.958Z,9.85
2022-10-11T05:24:56.357Z,9.93
2022-10-11T05:27:24.076Z,9.97
2022-10-11T05:29:52.273Z,9.97
2022-10-11T05:32:20.369Z,10.01
2022-10-11T05:34:48.182Z,10.03
2022-10-11T05:37:16.041Z,9.92
2022-10-11T05:39:43.844Z,9.95
2022-10-11T05:42:12.892Z,9.94
2022-10-11T05:44:40.867Z,9.95
2022-10-11T05:47:08.878Z,9.94
2022-10-11T05:49:36.739Z,9.91
2022-10-11T05:52:06.576Z,9.88
2022-10-11T05:54:34.546Z,9.85
2022-10-11T05:57:02.328Z,9.90
2022-10-11T05:59:31.513Z,9.96
2022-10-11T06:01:59.301Z,10.02
2022-10-11T06:04:27.163Z,10.01
2022-10-11T06:06:55.207Z,10.12
2022-10-11T06:09:23.041Z,10.18
2022-10-11T06:11:50.990Z,10.28
2022-10-11T06:14:19.362Z,10.39
2022-10-11T06:16:48.629Z,10.39
2022-10-11T06:19:16.462Z,10.48
2022-10-11T06:21:45.153Z,10.53
2022-10-11T06:24:13.411Z,10.61
2022-10-11T06:26:41.434Z,10.61
2022-10-11T06:29:11.553Z,10.61
2022-10-11T06:31:39.597Z,10.70
2022-10-11T06:34:09.364Z,10.88
2022-10-11T06:36:37.499Z,10.86
2022-10-11T06:39:05.368Z,10.89
2022-10-11T06:41:33.233Z,10.79
2022-10-11T06:44:01.139Z,10.90
2022-10-11T06:46:29.376Z,10.98
2022-10-11T06:48:57.574Z,10.95
2022-10-11T06:51:28.781Z,10.92
2022-10-11T06:53:58.029Z,11.01
2022-10-11T06:56:27.337Z,11.06
2022-10-11T06:58:56.163Z,11.08
2022-10-11T07:01:24.847Z,11.10
2022-10-11T07:03:54.752Z,11.18
2022-10-11T07:06:24.285Z,11.28
2022-10-11T07:08:53.670Z,11.32
2022-10-11T07:11:23.248Z,11.42
2022-10-11T07:13:52.680Z,11.41
2022-10-11T07:16:21.518Z,11.33
2022-10-11T07:18:58.810Z,11.34
2022-10-11T07:21:29.297Z,11.25
2022-10-11T07:23:59.090Z,11.11
2022-10-11T07:26:26.829Z,11.02
2022-10-11T07:28:54.686Z,11.00
2022-10-11T07:31:24.912Z,11.03
2022-10-11T07:33:53.329Z,10.83
2022-10-11T07:36:23.267Z,10.83
2022-10-11T07:38:51.506Z,10.86
2022-10-11T07:41:20.712Z,10.79
2022-10-11T07:43:49.811Z,10.89
2022-10-11T07:46:18.716Z,11.01
2022-10-11T07:48:46.632Z,11.09
2022-10-11T07:51:17.124Z,10.98
2022-10-11T07:53:47.129Z,11.03
2022-10-11T07:56:17.716Z,11.17
2022-10-11T07:58:51.349Z,11.21
2022-10-11T08:01:20.279Z,11.17
2022-10-11T08:03:48.592Z,11.28
2022-10-11T08:06:19.104Z,11.34
2022-10-11T08:08:47.739Z,11.46
2022-10-11T08:11:22.337Z,11.57
2022-10-11T08:13:52.334Z,11.65
2022-10-11T08:16:20.936Z,11.65
2022-10-11T08:18:48.783Z,11.53
2022-10-11T08:21:18.785Z,11.73
2022-10-11T08:23:46.846Z,11.53
2022-10-11T08:26:14.709Z,11.67
2022-10-11T08:28:42.821Z,11.78
2022-10-11T08:31:15.609Z,11.65
2022-10-11T08:33:44.286Z,11.84
2022-10-11T08:36:13.359Z,11.86
2022-10-11T08:38:42.061Z,11.86
2022-10-11T08:41:38.465Z,11.81
2022-10-11T08:44:15.372Z,11.81
2022-10-11T08:46:50.178Z,11.80
2022-10-11T08:49:20.184Z,11.82
2022-10-11T08:51:51.861Z,11.84
2022-10-11T08:54:24.022Z,11.82
2022-10-11T08:56:52.450Z,11.88
2022-10-11T08:59:30.085Z,11.89
2022-10-11T09:02:10.545Z,11.92
2022-10-11T09:04:38.297Z,11.88
2022-10-11T09:07:18.051Z,11.81
2022-10-11T09:09:59.582Z,11.94
2022-10-11T09:12:41.053Z,11.98
2022-10-11T09:15:19.641Z,12.11
2022-10-11T09:18:09.580Z,12.14
2022-10-11T09:20:48.980Z,12.09
2022-10-11T09:23:34.285Z,12.19
2022-10-11T09:26:07.605Z,12.27
2022-10-11T09:28:50.891Z,12.43
2022-10-11T09:31:18.978Z,12.44
2022-10-11T09:33:50.459Z,12.25
2022-10-11T09:36:26.617Z,12.38
2022-10-11T09:39:06.690Z,12.47
2022-10-11T09:41:39.877Z,12.70
2022-10-11T09:44:08.666Z,12.81
2022-10-11T09:46:38.358Z,13.26
2022-10-11T09:49:12.407Z,13.44
2022-10-11T09:51:42.801Z,13.81
2022-10-11T09:54:10.817Z,13.69
2022-10-11T09:56:43.641Z,13.61
2022-10-11T09:59:26.020Z,13.96
2022-10-11T10:02:21.337Z,14.17
2022-10-11T10:05:00.147Z,14.28
2022-10-11T10:07:30.420Z,14.46
2022-10-11T10:09:58.545Z,14.60
2022-10-11T10:12:29.263Z,14.84
2022-10-11T10:15:08.775Z,15.10
2022-10-11T10:17:37.158Z,15.23
2022-10-11T10:20:08.495Z,15.19
2022-10-11T10:22:36.726Z,15.01
2022-10-11T10:25:09.276Z,15.04
2022-10-11T10:27:37.803Z,15.15
2022-10-11T10:30:14.462Z,15.09
2022-10-11T10:32:52.378Z,14.86
2022-10-11T10:35:31.179Z,14.63
2022-10-11T10:38:09.804Z,14.80
2022-10-11T10:40:42.183Z,14.74
2022-10-11T10:43:15.584Z,15.06
2022-10-11T10:46:02.129Z,15.20
2022-10-11T10:49:18.814Z,15.22
2022-10-11T10:51:40.546Z,15.22
2022-10-11T10:54:16.083Z,15.16
2022-10-11T10:56:51.109Z,14.84
2022-10-11T10:59:51.080Z,14.50
2022-10-11T11:02:39.537Z,14.76
2022-10-11T11:05:18.716Z,14.72
2022-10-11T11:07:52.849Z,14.39
2022-10-11T11:10:23.889Z,14.39
2022-10-11T11:13:02.566Z,14.45
2022-10-11T11:15:38.143Z,14.50
2022-10-11T11:18:25.858Z,14.82
2022-10-11T11:21:08.862Z,15.05
2022-10-11T11:23:49.266Z,15.67
2022-10-11T11:26:24.680Z,15.61
2022-10-11T11:29:04.897Z,15.78
2022-10-11T11:31:48.979Z,15.93
2022-10-11T11:34:22.611Z,16.60
2022-10-11T11:36:55.733Z,16.58
2022-10-11T11:39:28.533Z,16.35
2022-10-11T11:42:00.475Z,16.14
2022-10-11T11:44:32.714Z,16.18
2022-10-11T11:47:04.709Z,15.95
2022-10-11T11:49:35.777Z,15.85
2022-10-11T11:52:06.683Z,16.10
2022-10-11T11:54:48.290Z,15.79
2022-10-11T11:57:28.387Z,15.87
2022-10-11T12:00:03.105Z,15.78
2022-10-11T12:02:42.770Z,16.16
2022-10-11T12:05:12.550Z,16.44
2022-10-11T12:07:59.600Z,16.19
2022-10-11T12:10:40.113Z,15.65
2022-10-11T12:13:17.710Z,15.20
2022-10-11T12:16:02.560Z,15.05
2022-10-11T12:18:32.245Z,14.95
2022-10-11T12:21:06.814Z,14.54
2022-10-11T12:23:50.717Z,14.48
2022-10-11T12:26:44.972Z,14.23
2022-10-11T12:29:42.678Z,14.44
2022-10-11T12:32:51.822Z,14.52
2022-10-11T12:36:05.671Z,14.28
2022-10-11T12:38:37.769Z,14.29
2022-10-11T12:41:49.296Z,14.45
2022-10-11T12:44:24.011Z,14.35
2022-10-11T12:47:16.635Z,14.13
2022-10-11T12:49:56.875Z,14.06
2022-10-11T12:52:41.446Z,13.93
2022-10-11T12:55:43.209Z,13.58
2022-10-11T12:58:30.720Z,13.29
2022-10-11T13:01:12.171Z,13.14
2022-10-11T13:03:43.186Z,13.18
2022-10-11T13:06:14.974Z,13.12
2022-10-11T13:08:46.332Z,13.27
2022-10-11T13:11:20.058Z,13.33
2022-10-11T13:13:53.098Z,13.36
2022-10-11T13:16:24.882Z,13.21
2022-10-11T13:18:57.584Z,13.27
2022-10-11T13:21:29.812Z,13.34
2022-10-11T13:24:00.720Z,13.14
2022-10-11T13:26:31.810Z,12.97
2022-10-11T13:29:01.104Z,13.00
2022-10-11T13:31:30.709Z,12.93
2022-10-11T13:34:00.033Z,12.96
2022-10-11T13:36:28.774Z,12.81
2022-10-11T13:38:59.278Z,12.94
2022-10-11T13:41:28.765Z,12.83
2022-10-11T13:43:59.156Z,12.72
2022-10-11T13:46:29.570Z,12.70
2022-10-11T13:49:00.512Z,12.66
2022-10-11T13:51:32.519Z,12.82
2022-10-11T13:54:02.031Z,12.83
2022-10-11T13:56:33.412Z,12.77
2022-10-11T13:59:01.648Z,12.80
2022-10-11T14:01:38.189Z,12.60
2022-10-11T14:04:10.865Z,12.67
2022-10-11T14:06:45.445Z,12.69
2022-10-11T14:09:21.334Z,12.77
2022-10-11T14:11:50.475Z,12.88
2022-10-11T14:14:41.780Z,12.82
2022-10-11T14:17:19.270Z,12.69
2022-10-11T14:20:11.420Z,12.75
2022-10-11T14:22:39.863Z,12.77
2022-10-11T14:25:08.114Z,12.86
2022-10-11T14:27:37.494Z,12.81
2022-10-11T14:32:58.678Z,12.98
2022-10-11T14:35:29.909Z,12.88
2022-10-11T14:37:58.546Z,12.94
2022-10-11T14:40:29.535Z,12.89
2022-10-11T14:42:57.403Z,13.04
2022-10-11T14:45:26.730Z,13.20
2022-10-11T14:47:54.735Z,13.41
2022-10-11T14:50:36.407Z,13.61
2022-10-11T14:53:05.718Z,13.78
2022-10-11T14:55:33.952Z,13.93
2022-10-11T14:58:01.719Z,14.18
2022-10-11T15:00:31.413Z,14.27
2022-10-11T15:02:59.742Z,14.38
2022-10-11T15:05:33.874Z,14.24
2022-10-11T15:08:02.438Z,14.11
2022-10-11T15:10:34.496Z,14.09
2022-10-11T15:13:04.618Z,14.24
2022-10-11T15:15:35.442Z,14.07
2022-10-11T15:18:05.622Z,14.10
2022-10-11T15:20:37.972Z,13.94
2022-10-11T15:23:07.713Z,13.87
2022-10-11T15:25:36.421Z,13.72
2022-10-11T15:28:05.164Z,13.66
2022-10-11T15:30:38.705Z,13.49
2022-10-11T15:33:10.162Z,13.42
2022-10-11T15:35:39.548Z,13.29
2022-10-11T15:38:07.309Z,13.24
2022-10-11T15:40:37.455Z,13.17
2022-10-11T15:43:05.670Z,13.10
2022-10-11T15:45:33.934Z,13.01
2022-10-11T15:48:01.988Z,12.94
2022-10-11T15:50:36.764Z,12.89
2022-10-11T15:53:09.203Z,12.80
2022-10-11T15:55:39.548Z,12.77
2022-10-11T15:58:07.924Z,12.71
2022-10-11T16:00:35.835Z,12.67
2022-10-11T16:03:03.669Z,12.54
2022-10-11T16:05:31.533Z,12.44
2022-10-11T16:07:59.945Z,12.39
2022-10-11T16:10:29.160Z,12.34
2022-10-11T16:12:57.238Z,12.26
2022-10-11T16:15:25.364Z,12.12
2022-10-11T16:17:53.539Z,12.07
2022-10-11T16:20:23.303Z,12.01
2022-10-11T16:22:51.816Z,11.87
2022-10-11T16:25:21.431Z,11.80
2022-10-11T16:27:51.707Z,11.70
2022-10-11T16:30:20.489Z,11.63
2022-10-11T16:32:48.534Z,11.54
2022-10-11T16:35:17.175Z,11.55
2022-10-11T16:37:45.428Z,11.49
2022-10-11T16:40:17.420Z,11.36
2022-10-11T16:42:46.918Z,11.34
2022-10-11T16:45:17.193Z,11.18
2022-10-11T16:47:45.202Z,11.11
2022-10-11T16:50:13.679Z,11.09
2022-10-11T16:52:41.552Z,10.98
2022-10-11T16:55:10.168Z,10.96
2022-10-11T16:57:38.803Z,10.93
2022-10-11T17:00:08.713Z,10.90
2022-10-11T17:02:37.863Z,10.87
2022-10-11T17:05:06.873Z,10.79
2022-10-11T17:07:34.728Z,10.83
2022-10-11T17:10:02.805Z,10.80
2022-10-11T17:12:31.915Z,10.70
2022-10-11T17:15:00.103Z,10.72
2022-10-11T17:17:28.043Z,10.58
2022-10-11T17:19:57.496Z,10.64
2022-10-11T17:22:25.890Z,10.64
2022-10-11T17:24:53.904Z,10.67
2022-10-11T17:27:21.771Z,10.66
2022-10-11T17:29:50.168Z,10.65
2022-10-11T17:32:17.930Z,10.63
2022-10-11T17:34:45.915Z,10.57
2022-10-11T17:37:15.249Z,10.57
2022-10-11T17:39:43.014Z,10.54
2022-10-11T17:42:11.040Z,10.54
2022-10-11T17:44:38.942Z,10.51
2022-10-11T17:47:06.663Z,10.45
2022-10-11T17:49:34.730Z,10.41
2022-10-11T17:52:02.445Z,10.35
2022-10-11T17:54:31.828Z,10.25
2022-10-11T17:56:59.745Z,10.31
2022-10-11T17:59:28.716Z,10.33
2022-10-11T18:01:56.626Z,10.36
2022-10-11T18:04:27.048Z,10.38
2022-10-11T18:06:55.234Z,10.33
2022-10-11T18:09:24.577Z,10.31
2022-10-11T18:11:53.941Z,10.31
2022-10-11T18:14:21.939Z,10.25
2022-10-11T18:16:49.874Z,10.23
2022-10-11T18:19:17.830Z,10.15
2022-10-11T18:21:45.765Z,10.08
2022-10-11T18:24:16.235Z,10.09
2022-10-11T18:26:45.535Z,9.96
2022-10-11T18:29:15.251Z,9.92
2022-10-11T18:31:43.400Z,9.90
2022-10-11T18:34:14.068Z,9.92
2022-10-11T18:36:41.829Z,9.94
2022-10-11T18:39:13.229Z,9.95
2022-10-11T18:41:44.325Z,9.96
2022-10-11T18:44:14.950Z,9.91
2022-10-11T18:46:44.708Z,9.89
2022-10-11T18:49:13.397Z,9.86
2022-10-11T18:51:42.678Z,9.83
2022-10-11T18:54:16.666Z,9.83
2022-10-11T18:56:48.170Z,9.79
2022-10-11T18:59:16.289Z,9.77
2022-10-11T19:01:46.174Z,9.74
2022-10-11T19:04:16.674Z,9.76
2022-10-11T19:06:47.598Z,9.76
2022-10-11T19:09:21.453Z,9.81
2022-10-11T19:11:50.669Z,9.76
2022-10-11T19:14:20.681Z,9.75
2022-10-11T19:16:51.754Z,9.75
2022-10-11T19:19:21.300Z,9.71
2022-10-11T19:21:49.495Z,9.59
2022-10-11T19:24:18.410Z,9.59
2022-10-11T19:26:47.437Z,9.41
2022-10-11T19:29:18.644Z,9.53
2022-10-11T19:31:49.089Z,9.38
2022-10-11T19:34:19.733Z,9.37
2022-10-11T19:36:50.265Z,9.31
2022-10-11T19:39:19.474Z,9.30
2022-10-11T19:41:47.751Z,9.15
2022-10-11T19:44:16.763Z,9.28
2022-10-11T19:46:51.647Z,9.15
2022-10-11T19:49:24.618Z,9.16
2022-10-11T19:51:53.503Z,9.17
2022-10-11T19:54:21.758Z,9.16
2022-10-11T19:56:49.720Z,9.13
2022-10-11T19:59:18.222Z,9.09
2022-10-11T20:01:51.298Z,9.17
2022-10-11T20:04:47.464Z,9.10
2022-10-11T20:07:11.485Z,9.16
2022-10-11T20:09:39.665Z,9.15
2022-10-11T20:12:08.277Z,9.06
2022-10-11T20:14:36.374Z,9.00
2022-10-11T20:17:04.297Z,8.97
2022-10-11T20:19:33.796Z,8.89
2022-10-11T20:22:02.243Z,8.94
2022-10-11T20:24:33.482Z,8.79
2022-10-11T20:27:02.676Z,8.70
2022-10-11T20:29:30.578Z,8.46
2022-10-11T20:31:59.293Z,8.26
2022-10-11T20:34:28.153Z,8.33
2022-10-11T20:36:57.897Z,8.36
2022-10-11T20:39:25.901Z,8.34
2022-10-11T20:41:54.140Z,8.23
2022-10-11T20:44:21.877Z,7.93
2022-10-11T20:46:49.952Z,7.93
2022-10-11T20:49:19.736Z,7.67
2022-10-11T20:51:47.458Z,7.79
2022-10-11T20:54:16.844Z,7.80
2022-10-11T20:56:44.759Z,7.65
2022-10-11T20:59:12.602Z,7.58
2022-10-11T21:01:42.292Z,7.45
2022-10-11T21:04:17.252Z,7.32
2022-10-11T21:06:45.176Z,7.30
2022-10-11T21:09:15.608Z,7.31
2022-10-11T21:11:46.272Z,7.22
2022-10-11T21:14:14.842Z,7.26
2022-10-11T21:16:42.947Z,7.22
2022-10-11T21:19:15.914Z,7.13
2022-10-11T21:21:46.453Z,7.11
2022-10-11T21:24:16.538Z,6.98
2022-10-11T21:26:44.221Z,6.91
2022-10-11T21:29:13.527Z,6.86
2022-10-11T21:31:41.596Z,6.85
2022-10-11T21:34:09.333Z,6.88
2022-10-11T21:36:37.287Z,6.86
2022-10-11T21:39:05.577Z,6.86
2022-10-11T21:41:33.971Z,6.84
2022-10-11T21:44:02.148Z,6.80
2022-10-11T21:49:21.030Z,6.82
2022-10-11T21:51:48.921Z,6.83
2022-10-11T21:54:17.452Z,6.83
2022-10-11T21:56:45.597Z,6.81
2022-10-11T21:59:13.610Z,6.78
2022-10-11T22:01:43.760Z,6.75
2022-10-11T22:04:12.480Z,6.69
2022-10-11T22:06:41.236Z,6.79
2022-10-11T22:09:09.655Z,6.77
2022-10-11T22:11:39.118Z,6.74
2022-10-11T22:14:07.050Z,6.75
2022-10-11T22:16:35.981Z,6.72
2022-10-11T22:19:05.458Z,6.81
2022-10-11T22:21:33.325Z,6.73
2022-10-11T22:24:01.103Z,6.62
2022-10-11T22:26:31.617Z,6.48
2022-10-11T22:29:00.620Z,6.49
2022-10-11T22:31:29.173Z,6.47
2022-10-11T22:33:58.234Z,6.37
2022-10-11T22:36:28.485Z,6.33
2022-10-11T22:38:56.188Z,6.31
2022-10-11T22:41:24.677Z,6.24
2022-10-11T22:43:52.571Z,6.21
2022-10-11T22:46:20.513Z,6.17
2022-10-11T22:48:48.605Z,6.22
2022-10-11T22:51:16.767Z,6.20
2022-10-11T22:53:46.133Z,6.09
2022-10-11T22:56:14.250Z,6.14
2022-10-11T22:58:42.122Z,6.08
2022-10-11T23:01:10.833Z,6.04
2022-10-11T23:03:39.298Z,6.01
2022-10-11T23:06:07.433Z,6.01
2022-10-11T23:08:35.168Z,6.01
2022-10-11T23:11:06.383Z,5.96
2022-10-11T23:13:34.290Z,5.93
2022-10-11T23:16:06.390Z,5.98
2022-10-11T23:18:34.208Z,5.94
2022-10-11T23:21:02.212Z,5.88
2022-10-11T23:23:29.975Z,5.86
2022-10-11T23:26:02.560Z,5.81
2022-10-11T23:28:31.917Z,5.81
2022-10-11T23:31:00.151Z,5.82
2022-10-11T23:33:28.582Z,5.85
2022-10-11T23:35:56.329Z,5.74
2022-10-11T23:38:24.619Z,5.72
2022-10-11T23:40:52.297Z,5.69
2022-10-11T23:43:19.974Z,5.69
2022-10-11T23:45:49.432Z,5.68
2022-10-11T23:48:17.174Z,5.64
2022-10-11T23:50:44.905Z,5.68
2022-10-11T23:53:14.237Z,5.67
2022-10-11T23:55:43.172Z,5.61
2022-10-11T23:58:11.030Z,5.47
